»·PEaware :: N137AD KBFL-KMHV

N137AD :: KBFL-KMHV

FLIGHT INFORMATION

Flight Status: Arrived
Operator: Privately registered:
United States
More flights under this callsign
Pilot: Mike Z. (25595)
Aircraft: CESSNA 172 SKYHAWK
(C172)
More flights by this aircraft type
Origin: KBFL Meadows
United States
Destination: KMHV Mojave
United States
More flights between these airports :: More routes between these airports
Route: KBFL KMHV
File this flight plan on PilotEdge
Remarks: CAT-06
Altitude:
(Current/Filed)
5,500ft
Speed:
(Current/Filed)
110kts
Departed: 28-Jul-19 10:23 AM
Arrived: 28-Jul-19 10:58 AM
Distance/Time
Traveled:
49nm/0:35
Distance/Time
To Go:
Arrived

Flight Plot

Page will automatically refresh every two minutes.


Map Options




Map Legend


Flown Route
Filed Route
Departure Airport
Arrival Airport
Navaid (VOR, NDB)
Fix

Horizontal Profiles

Position Reports

Time Latitude Longitude Heading Altitude Ground
Speed
28-Jul-19 10:11 35.435703 -119.052044 180 504ft 0kts
28-Jul-19 10:12 35.435703 -119.052044 180 504ft 0kts
28-Jul-19 10:13 35.435703 -119.052044 180 504ft 0kts
28-Jul-19 10:14 35.435703 -119.052044 180 504ft 0kts
28-Jul-19 10:15 35.435703 -119.052044 180 504ft 0kts
28-Jul-19 10:16 35.435703 -119.052044 180 504ft 0kts
28-Jul-19 10:17 35.435286 -119.053633 217 499ft 14kts
28-Jul-19 10:18 35.432605 -119.052474 136 493ft 17kts
28-Jul-19 10:19 35.431615 -119.052008 182 491ft 0kts
28-Jul-19 10:20 35.431615 -119.052008 182 491ft 0kts
28-Jul-19 10:21 35.431577 -119.052010 182 491ft 0kts
28-Jul-19 10:22 35.434300 -119.056732 314 501ft 77kts
28-Jul-19 10:23 35.451702 -119.077771 323 1135ft 87kts
28-Jul-19 10:24 35.464057 -119.067269 91 1785ft 86kts
28-Jul-19 10:25 35.455543 -119.042611 163 2472ft 83kts
28-Jul-19 10:26 35.435767 -119.033132 135 3133ft 84kts
28-Jul-19 10:27 35.417228 -119.016987 155 3809ft 81kts
28-Jul-19 10:28 35.413387 -118.990335 86 4358ft 89kts
28-Jul-19 10:29 35.406742 -118.961613 114 4967ft 87kts
28-Jul-19 10:30 35.397225 -118.936365 114 5522ft 88kts
28-Jul-19 10:31 35.384606 -118.903938 114 5513ft 113kts
28-Jul-19 10:32 35.370379 -118.868649 114 5512ft 116kts
28-Jul-19 10:33 35.355898 -118.832943 114 5511ft 117kts
28-Jul-19 10:34 35.340883 -118.796081 114 5431ft 119kts
28-Jul-19 10:35 35.326145 -118.760358 114 5463ft 116kts
28-Jul-19 10:36 35.311520 -118.725544 115 5495ft 114kts
28-Jul-19 10:37 35.299144 -118.689854 104 5527ft 113kts
28-Jul-19 10:38 35.290600 -118.651992 104 5563ft 118kts
28-Jul-19 10:39 35.274863 -118.617529 133 5595ft 119kts
28-Jul-19 10:40 35.252795 -118.586777 133 5623ft 120kts
28-Jul-19 10:41 35.230663 -118.556205 140 5650ft 119kts
28-Jul-19 10:42 35.205799 -118.528821 136 5647ft 121kts
28-Jul-19 10:43 35.182447 -118.498414 135 5624ft 122kts
28-Jul-19 10:44 35.159223 -118.468202 135 5624ft 121kts
28-Jul-19 10:45 35.138376 -118.435785 111 5625ft 123kts
28-Jul-19 10:46 35.126988 -118.396154 110 5624ft 123kts
28-Jul-19 10:47 35.115569 -118.356336 110 5624ft 123kts
28-Jul-19 10:48 35.104840 -118.318228 110 5622ft 123kts
28-Jul-19 10:49 35.093790 -118.278287 110 5611ft 124kts
28-Jul-19 10:50 35.082905 -118.239875 110 5514ft 108kts
28-Jul-19 10:51 35.071451 -118.201734 110 4282ft 124kts
28-Jul-19 10:52 35.057715 -118.169910 136 3862ft 93kts
28-Jul-19 10:53 35.036759 -118.142289 139 3850ft 123kts
28-Jul-19 10:54 35.021877 -118.120424 56 3620ft 74kts
28-Jul-19 10:55 35.036187 -118.120246 308 3087ft 61kts
28-Jul-19 10:56 35.048217 -118.135019 321 2708ft 67kts
28-Jul-19 10:57 35.055536 -118.143964 318 2729ft 25kts
28-Jul-19 10:58 35.057591 -118.144696 83 2735ft 0kts
28-Jul-19 10:59 35.057591 -118.144696 83 2735ft 0kts
28-Jul-19 11:00 35.057582 -118.144660 261 2735ft 0kts
28-Jul-19 11:01 35.057580 -118.144677 261 2735ft 0kts
28-Jul-19 11:02 35.057578 -118.144694 261 2735ft 0kts
28-Jul-19 11:03 35.057576 -118.144713 261 2735ft 0kts
28-Jul-19 11:04 35.057574 -118.144723 262 2735ft 0kts
28-Jul-19 11:05 35.057574 -118.144723 262 2735ft 0kts
28-Jul-19 11:06 35.057574 -118.144723 262 2735ft 0kts
28-Jul-19 11:07 35.057574 -118.144723 262 2735ft 0kts
28-Jul-19 11:08 35.057589 -118.146413 269 2738ft 29kts
28-Jul-19 11:09 35.057595 -118.152298 272 2751ft 11kts
28-Jul-19 11:10 35.057611 -118.156856 269 2762ft 8kts
28-Jul-19 11:11 35.057149 -118.160008 76 2766ft 0kts

Navigation Log

Ident Type
Flight plan parsing failed, navigation log unavailable